Airfield :







YOU CAN JOIN US ON...

 
LOGIN :

Register | Disclaimer

   EN    FR    IT 

 









Legend :    VFR   Marginal VFR   IFR   Intensive IFR   Very Intensive IFR
Visi :
Ceiling :
>= 8 km
>= 3000ft
5 to 8 km
1000 to 3000 ft
1500m to 5 km
500 to 1000 ft
800 to 1500m
200 to 500 ft
< 800m
< 200 ft
Symbols :   Thunderstorms  Fog  Heavy snow  Heavy precipitations  Wind > 20 kt






- Airport Elevation : 90 ft
- IATA code : YHU


CYHU - Montréal Saint-Hubert

CURRENT METAR :
  • 142105Z AUTO 02009KT 3SM BR OVC002 02/02 A2919 RMK SLP886

EXPIRED METARs :
  • 142047Z AUTO 02012KT 2 1/2SM BR OVC002 02/02 A2919 RMK PRESFR SLP886
  • 142000Z AUTO 02009KT 3SM BR OVC002 03/02 A2925 RMK SLP909
  • 141910Z AUTO 03011KT 5SM BR OVC004 03/03 A2926 RMK PRESFR SLP910
  • 141900Z AUTO 02011KT 6SM BR OVC004 03/03 A2928 RMK PRESFR SLP919

TAF TAF CYHU
Valid from the 14 at 18:00 until the 15 at 18:00 UTC


141738Z 1418/1518 03012KT 3SM -RA BR OVC004
TEMPO 1418/1501 6SM -DZ BR OVC006
FM150100 04008KT 4SM SHRA BR OVC008
TEMPO 1501/1506 2SM -SHRA BR OVC003
BECMG 1502/1504 24006KT
FM150600 24022G32KT 6SM -RASN BR OVC008
FM150700 26022G35KT 2SM -SHSN OVC020
PROB30 1507/1509 3/4SM -SN VV007
FM151100 26022G33KT P6SM -SHSN OVC020
FM151500 26022G32KT P6SM BKN025 RMK FCST BASED ON AUTO OBS. NXT FCST BY 150000Z



MET'MAP, your aeronautical weather chart ! - Copyright ORBIFLY December 2007 - Disclaimer

ORBIFLY MET'MAP TEAM :

Programming & Development : Alexandra Zaïnal
Concept & original design : Baudouin d'Aumeries
Assistance for programming : Marc-Olivier Méhu
Technical & hardware support : Manuel Goepfert

Contact : metmap@orbifly.com




SOURCES & CREDITS :

   NOAA